Time;durP1;ratioP1;P1;durP2;ratioP2;P2;SDS_P1;SDS_P2;PMS_P1;PMS_P2;Temp;Humidity;BMP_temperature;BMP_pressure;BME280_temperature;BME280_humidity;BME280_pressure;Samples;Min_cycle;Max_cycle;Signal;HPM_P1;HPM_P2
2022/01/25 00:31:17;;;;;;;91.67;50.95;;;;;;;-0.03;81.69;97914.83;1611020;89;21026;-80
2022/01/25 00:33:46;;;;;;;79.05;41.23;;;;;;;-0.03;81.37;97915.66;1660013;84;21006;-80
2022/01/25 00:36:16;;;;;;;86.63;47.80;;;;;;;-0.04;81.59;97910.63;1709511;82;21046;-80
2022/01/25 00:38:41;;;;;;;77.72;39.13;;;;;;;-0.09;81.53;97911.33;1709599;84;21030;-80
2022/01/25 00:41:07;;;;;;;71.72;36.93;;;;;;;-0.06;81.56;97903.05;1709494;84;21358;-80
2022/01/25 00:43:33;;;;;;;77.45;40.35;;;;;;;-0.02;81.65;97909.64;1709413;83;21050;-80
2022/01/25 00:46:04;;;;;;;67.58;33.13;;;;;;;0.05;81.66;97906.79;1709333;83;21058;-80
2022/01/25 00:49:03;;;;;;;65.65;35.05;;;;;;;0.07;81.81;97908.35;1709051;84;21129;-80
2022/01/25 00:51:18;;;;;;;127.45;67.70;;;;;;;0.09;81.74;97912.11;1695445;84;21020;-80
2022/01/25 00:56:15;;;;;;;134.82;70.97;;;;;;;-0.06;80.46;97912.44;1697054;83;21020;-80
2022/01/25 00:58:41;;;;;;;116.55;64.75;;;;;;;-0.12;80.15;97906.38;1696957;83;20971;-80
2022/01/25 01:01:06;;;;;;;133.15;70.10;;;;;;;-0.19;80.42;97904.56;1696940;83;21026;-80
2022/01/25 01:03:32;;;;;;;139.00;75.40;;;;;;;-0.20;80.53;97910.58;1696703;84;20994;-80
2022/01/25 01:05:58;;;;;;;125.10;71.22;;;;;;;-0.20;80.63;97909.75;1697038;83;20960;-80
2022/01/25 01:08:24;;;;;;;114.55;61.50;;;;;;;-0.21;80.60;97899.17;1696684;83;20979;-80
2022/01/25 01:10:49;;;;;;;103.20;58.48;;;;;;;-0.20;80.99;97896.53;1696679;83;20975;-80
2022/01/25 01:13:46;;;;;;;100.65;56.83;;;;;;;-0.17;81.14;97900.20;1696780;83;21035;-80
2022/01/25 01:15:58;;;;;;;81.53;44.75;;;;;;;-0.15;81.32;97901.43;1692589;84;21051;-81
2022/01/25 01:29:29;;;;;;;57.93;29.15;;;;;;;-0.08;82.32;97884.87;1687620;85;21079;-80
2022/01/25 01:45:08;;;;;;;35.28;20.40;;;;;;;0.12;82.80;97860.82;1688891;85;21111;-81
2022/01/25 01:47:26;;;;;;;36.20;22.77;;;;;;;0.17;82.64;97863.53;1685057;85;21040;-79
2022/01/25 01:49:48;;;;;;;38.48;20.48;;;;;;;0.21;82.74;97861.17;1688148;85;21004;-79
2022/01/25 01:52:14;;;;;;;32.55;17.52;;;;;;;0.24;82.88;97869.13;1685752;84;21048;-79
2022/01/25 01:54:40;;;;;;;44.20;21.68;;;;;;;0.25;83.04;97871.59;1684922;85;21426;-79
2022/01/25 01:57:06;;;;;;;43.25;22.25;;;;;;;0.26;82.99;97868.13;1684735;85;20988;-80
2022/01/25 01:59:32;;;;;;;44.40;25.17;;;;;;;0.32;83.03;97867.42;1684527;85;21339;-80
2022/01/25 02:01:58;;;;;;;40.70;21.90;;;;;;;0.38;83.12;97865.84;1685981;85;21090;-80
2022/01/25 02:04:24;;;;;;;32.05;18.37;;;;;;;0.39;83.13;97862.38;1686396;85;21043;-80
2022/01/25 02:06:50;;;;;;;18.75;11.78;;;;;;;0.37;83.15;97853.51;1686546;85;20991;-80
2022/01/25 02:09:16;;;;;;;23.30;12.40;;;;;;;0.35;83.29;97851.95;1686364;85;20996;-80
2022/01/25 02:11:41;;;;;;;21.15;13.80;;;;;;;0.35;83.43;97857.06;1686578;85;20969;-80
2022/01/25 02:14:09;;;;;;;23.42;14.25;;;;;;;0.37;83.48;97843.28;1667050;85;21360;-80
2022/01/25 02:24:41;;;;;;;17.20;11.68;;;;;;;0.25;83.84;97837.54;1666687;86;21024;-80
2022/01/25 02:27:07;;;;;;;19.23;11.10;;;;;;;0.27;83.85;97829.33;1668718;86;21033;-80
2022/01/25 02:29:33;;;;;;;16.90;11.63;;;;;;;0.27;83.92;97826.78;1668575;86;21386;-80
2022/01/25 02:31:58;;;;;;;18.12;10.72;;;;;;;0.30;84.02;97826.60;1668416;86;21102;-80
2022/01/25 02:34:25;;;;;;;18.35;11.53;;;;;;;0.28;84.00;97819.47;1668685;86;21079;-80
2022/01/25 02:37:03;;;;;;;18.50;11.93;;;;;;;0.26;83.97;97818.73;1668417;85;21115;-80
2022/01/25 02:39:29;;;;;;;23.92;13.90;;;;;;;0.26;83.94;97816.18;1668525;86;20995;-81
2022/01/25 02:41:55;;;;;;;18.92;12.03;;;;;;;0.32;84.08;97818.39;1668614;86;20994;-79
2022/01/25 02:44:26;;;;;;;15.80;10.23;;;;;;;0.37;84.14;97817.71;1668895;86;21083;-79
2022/01/25 02:49:31;;;;;;;19.27;10.05;;;;;;;0.38;84.11;97814.24;1666973;86;21071;-80
2022/01/25 02:51:57;;;;;;;15.05;10.25;;;;;;;0.39;84.14;97813.34;1680407;85;21447;-79
2022/01/25 02:54:22;;;;;;;23.47;13.58;;;;;;;0.41;84.21;97808.95;1688550;85;20981;-79
2022/01/25 02:56:48;;;;;;;19.27;11.35;;;;;;;0.43;84.29;97812.25;1688291;85;21037;-79
2022/01/25 02:59:16;;;;;;;22.87;12.33;;;;;;;0.44;84.36;97808.78;1688396;85;20973;-79
2022/01/25 03:01:42;;;;;;;17.77;11.53;;;;;;;0.43;84.32;97809.70;1688252;85;21118;-79
2022/01/25 03:04:08;;;;;;;25.62;14.38;;;;;;;0.44;84.39;97802.84;1688453;85;21012;-79
2022/01/25 03:06:34;;;;;;;27.17;14.87;;;;;;;0.46;84.33;97804.86;1688681;85;20998;-80
2022/01/25 03:09:00;;;;;;;19.85;11.48;;;;;;;0.51;84.38;97797.78;1688401;85;20965;-79
2022/01/25 03:11:26;;;;;;;20.10;12.88;;;;;;;0.49;84.27;97800.42;1688291;85;21271;-80
2022/01/25 03:13:55;;;;;;;27.75;15.35;;;;;;;0.48;84.44;97796.19;1688628;85;21337;-79
2022/01/25 03:16:42;;;;;;;21.60;12.75;;;;;;;0.51;84.52;97794.77;1688523;85;21433;-79
2022/01/25 03:21:59;;;;;;;21.57;12.18;;;;;;;0.51;84.35;97793.94;1682956;83;21059;-79
2022/01/25 03:24:25;;;;;;;17.67;11.33;;;;;;;0.49;84.41;97792.75;1685178;85;20985;-80
2022/01/25 03:26:50;;;;;;;20.12;11.08;;;;;;;0.48;84.54;97790.25;1688826;85;21024;-80
2022/01/25 03:29:17;;;;;;;17.25;10.98;;;;;;;0.45;84.74;97787.88;1688625;85;21063;-80
2022/01/25 03:31:43;;;;;;;19.67;11.70;;;;;;;0.42;84.54;97788.05;1688457;85;21040;-80
2022/01/25 03:34:08;;;;;;;23.20;14.05;;;;;;;0.41;84.52;97792.33;1688414;85;20954;-79
2022/01/25 03:36:34;;;;;;;22.60;13.90;;;;;;;0.40;84.65;97786.85;1688589;85;20990;-80
2022/01/25 03:39:00;;;;;;;23.98;14.40;;;;;;;0.41;84.73;97780.83;1688483;85;21044;-80
2022/01/25 03:41:26;;;;;;;29.15;15.23;;;;;;;0.45;84.83;97785.31;1688465;85;21057;-80
2022/01/25 03:43:55;;;;;;;18.50;11.25;;;;;;;0.45;84.68;97784.03;1688663;85;20990;-80
2022/01/25 03:46:53;;;;;;;21.80;12.73;;;;;;;0.40;84.88;97786.03;1688745;85;21038;-80
2022/01/25 03:51:41;;;;;;;18.67;11.12;;;;;;;0.39;85.07;97780.55;1683166;85;21460;-80
2022/01/25 03:54:07;;;;;;;21.73;13.55;;;;;;;0.40;85.14;97774.06;1681375;85;20966;-80
2022/01/25 03:56:33;;;;;;;30.23;18.90;;;;;;;0.46;85.20;97772.89;1681216;85;21033;-80
2022/01/25 03:58:59;;;;;;;30.37;19.40;;;;;;;0.47;85.14;97782.21;1681178;85;21345;-80
2022/01/25 04:01:25;;;;;;;36.23;22.73;;;;;;;0.48;84.88;97778.74;1661717;85;20993;-81
2022/01/25 04:04:00;;;;;;;44.77;28.92;;;;;;;0.49;84.76;97785.08;1681021;85;20990;-81
2022/01/25 04:06:21;;;;;;;57.38;37.67;;;;;;;0.47;84.45;97780.94;1679988;85;20998;-81
2022/01/25 04:08:47;;;;;;;54.55;34.23;;;;;;;0.45;83.89;97779.74;1681167;85;20989;-81
2022/01/25 04:11:13;;;;;;;55.92;34.27;;;;;;;0.44;83.50;97780.66;1681342;85;21416;-81
2022/01/25 04:13:39;;;;;;;56.85;36.42;;;;;;;0.43;83.48;97783.30;1680906;85;21288;-80
2022/01/25 04:16:12;;;;;;;55.58;35.05;;;;;;;0.41;83.47;97775.72;1668041;85;21375;-80
2022/01/25 04:18:47;;;;;;;62.50;37.63;;;;;;;0.38;83.20;97767.39;1675787;85;21030;-80
2022/01/25 04:21:26;;;;;;;57.48;35.78;;;;;;;0.37;83.22;97765.30;1677023;85;20974;-80
2022/01/25 04:26:19;;;;;;;58.15;35.78;;;;;;;0.39;83.24;97770.32;1642972;87;21156;-80
2022/01/25 04:28:45;;;;;;;61.23;37.42;;;;;;;0.39;83.23;97772.88;1676417;85;20915;-80
2022/01/25 04:31:11;;;;;;;58.98;36.03;;;;;;;0.35;83.22;97768.39;1681087;85;21024;-79
2022/01/25 04:33:43;;;;;;;60.00;36.15;;;;;;;0.33;83.29;97766.83;1680726;85;21484;-79
2022/01/25 04:49:35;;;;;;;59.35;36.68;;;;;;;0.27;83.08;97765.42;1681318;85;21034;-81
2022/01/25 04:52:11;;;;;;;61.20;39.08;;;;;;;0.23;83.30;97769.06;1681097;85;21005;-81
2022/01/25 04:55:02;;;;;;;61.28;37.85;;;;;;;0.20;83.44;97762.84;1680690;85;20974;-81
2022/01/25 04:57:45;;;;;;;65.72;40.63;;;;;;;0.17;83.43;97754.89;1677483;85;21015;-81
2022/01/25 05:00:15;;;;;;;68.42;40.75;;;;;;;0.13;83.39;97766.16;1679812;84;20973;-81
2022/01/25 05:05:10;;;;;;;62.70;37.95;;;;;;;0.14;83.46;97756.31;1681021;85;21016;-81
2022/01/25 05:07:39;;;;;;;66.22;42.60;;;;;;;0.13;83.48;97752.56;1680339;85;21061;-81
2022/01/25 05:10:01;;;;;;;62.65;41.53;;;;;;;0.13;83.66;97752.11;1683128;85;21014;-81
2022/01/25 05:15:21;;;;;;;60.90;38.63;;;;;;;0.10;83.47;97761.68;1680883;85;20961;-81
2022/01/25 05:17:40;;;;;;;66.15;39.92;;;;;;;0.09;83.51;97767.70;1680204;82;20997;-80
2022/01/25 05:22:45;;;;;;;61.08;44.55;;;;;;;0.07;83.40;97760.58;1680638;85;21029;-80
2022/01/25 05:25:11;;;;;;;63.83;41.20;;;;;;;0.06;83.44;97755.09;1680787;85;20977;-80
2022/01/25 05:27:37;;;;;;;59.60;40.70;;;;;;;0.03;83.40;97742.03;1680810;85;21325;-80
2022/01/25 05:30:03;;;;;;;58.60;39.15;;;;;;;0.00;83.72;97740.93;1680497;85;20982;-81
2022/01/25 05:32:32;;;;;;;63.63;40.88;;;;;;;-0.01;83.84;97734.97;1680988;85;21017;-82
2022/01/25 05:34:57;;;;;;;67.35;39.30;;;;;;;-0.02;83.77;97733.32;1680705;85;20962;-82
2022/01/25 05:37:23;;;;;;;63.13;41.83;;;;;;;-0.01;83.78;97734.97;1681283;85;21037;-82
2022/01/25 05:39:51;;;;;;;61.00;43.30;;;;;;;0.01;83.79;97738.74;1680888;85;21089;-82
2022/01/25 05:43:55;;;;;;;46.68;30.72;;;;;;;0.01;84.00;97733.63;1681283;85;21020;-82
2022/01/25 05:45:17;;;;;;;76.62;46.28;;;;;;;-0.04;84.18;97733.03;1637666;85;21380;-81
2022/01/25 05:47:32;;;;;;;;;;;;;;;-0.04;84.41;97731.30;1679928;85;21002;-81
2022/01/25 05:49:55;;;;;;;184.03;77.15;;;;;;;-0.01;84.51;97732.86;1679771;85;20120;-81
2022/01/25 05:52:20;;;;;;;39.23;22.22;;;;;;;0.04;84.67;97732.64;1679999;85;21058;-81
2022/01/25 05:54:46;;;;;;;16.02;11.18;;;;;;;0.05;84.74;97740.22;1678368;85;21379;-81
2022/01/25 05:57:12;;;;;;;14.70;8.90;;;;;;;0.07;84.95;97735.02;1678254;85;21373;-81
2022/01/25 05:59:38;;;;;;;9.98;7.20;;;;;;;0.03;85.04;97719.49;1678339;84;21026;-81
2022/01/25 06:02:06;;;;;;;10.58;6.95;;;;;;;0.01;85.22;97714.47;1678284;84;21030;-81
2022/01/25 06:04:32;;;;;;;15.48;8.20;;;;;;;0.02;85.55;97708.45;1678124;85;21046;-82
2022/01/25 06:06:57;;;;;;;14.05;10.65;;;;;;;0.04;85.27;97699.42;1678299;84;20956;-81
2022/01/25 06:09:26;;;;;;;13.13;11.40;;;;;;;0.06;85.46;97697.59;1673755;84;21437;-81
2022/01/25 06:11:53;;;;;;;12.93;10.18;;;;;;;0.06;85.46;97685.64;1668822;86;21004;-80
2022/01/25 06:14:19;;;;;;;10.38;8.23;;;;;;;0.09;85.48;97699.52;1647520;86;20995;-80
2022/01/25 06:16:45;;;;;;;21.62;11.18;;;;;;;0.13;85.51;97704.00;1668806;85;20995;-81
2022/01/25 06:19:11;;;;;;;46.25;18.82;;;;;;;0.14;85.54;97702.64;1668920;86;21007;-81
2022/01/25 06:21:36;;;;;;;326.80;125.87;;;;;;;0.18;85.55;97697.75;1668829;86;21024;-82
2022/01/25 06:24:02;;;;;;;270.90;116.55;;;;;;;0.20;85.47;97698.94;1668844;85;21071;-81
2022/01/25 06:26:28;;;;;;;150.65;53.20;;;;;;;0.25;85.64;97695.66;1668842;86;21072;-81
2022/01/25 06:28:54;;;;;;;152.95;58.13;;;;;;;0.29;85.54;97704.34;1668997;86;20980;-82
2022/01/25 06:31:20;;;;;;;54.48;24.70;;;;;;;0.32;85.59;97709.73;1668799;86;20995;-81
2022/01/25 06:33:46;;;;;;;48.87;23.57;;;;;;;0.35;85.52;97712.60;1668813;85;21070;-82
2022/01/25 06:36:12;;;;;;;70.57;34.58;;;;;;;0.37;85.50;97700.55;1668835;86;21003;-82
2022/01/25 06:38:38;;;;;;;40.30;22.73;;;;;;;0.37;85.32;97700.09;1669104;86;20984;-82
2022/01/25 06:41:04;;;;;;;26.95;16.48;;;;;;;0.36;85.34;97696.34;1668896;86;21334;-82
2022/01/25 06:43:29;;;;;;;40.05;22.07;;;;;;;0.33;85.33;97705.02;1668770;86;21087;-80
2022/01/25 06:45:59;;;;;;;20.57;16.95;;;;;;;0.37;85.42;97704.38;1668829;86;21087;-80
2022/01/25 06:48:23;;;;;;;35.10;19.35;;;;;;;0.41;85.36;97700.28;1668479;83;20995;-80
2022/01/25 06:50:48;;;;;;;47.38;24.45;;;;;;;0.44;85.51;97701.84;1669157;86;21033;-81
2022/01/25 06:53:14;;;;;;;21.40;13.93;;;;;;;0.45;85.40;97696.63;1676174;85;21086;-81
2022/01/25 06:55:40;;;;;;;33.75;18.25;;;;;;;0.44;85.35;97703.11;1687881;85;21035;-81
2022/01/25 06:58:07;;;;;;;29.15;17.73;;;;;;;0.46;85.64;97703.84;1688650;85;21019;-81
2022/01/25 07:00:32;;;;;;;27.62;17.00;;;;;;;0.49;85.45;97699.86;1690703;82;21011;-81
2022/01/25 07:02:58;;;;;;;47.73;32.93;;;;;;;0.54;85.54;97697.86;1705910;83;21018;-81
2022/01/25 07:05:24;;;;;;;49.18;30.72;;;;;;;0.56;85.46;97693.02;1716888;84;20955;-82
2022/01/25 07:07:52;;;;;;;93.12;39.65;;;;;;;0.59;85.50;97703.52;1717093;83;21048;-81
2022/01/25 07:10:17;;;;;;;33.63;19.75;;;;;;;0.62;85.52;97700.78;1717227;83;20962;-81
2022/01/25 07:12:43;;;;;;;41.40;21.60;;;;;;;0.58;85.47;97700.60;1717173;83;21015;-81
2022/01/25 07:15:09;;;;;;;24.35;15.72;;;;;;;0.54;85.57;97705.08;1717303;83;20946;-82
2022/01/25 07:17:35;;;;;;;24.55;19.20;;;;;;;0.56;85.59;97699.87;1717212;83;20962;-81
2022/01/25 07:20:01;;;;;;;16.52;12.33;;;;;;;0.58;85.62;97688.63;1717408;83;20993;-82
2022/01/25 07:22:26;;;;;;;12.15;9.33;;;;;;;0.61;85.60;97695.30;1717280;83;20990;-82
2022/01/25 07:24:52;;;;;;;12.88;9.13;;;;;;;0.60;85.52;97697.04;1717086;83;21344;-82
2022/01/25 07:27:18;;;;;;;11.95;8.58;;;;;;;0.64;85.76;97698.14;1717138;83;20907;-82
2022/01/25 07:29:43;;;;;;;10.80;8.35;;;;;;;0.63;85.82;97698.59;1717271;83;21014;-81
2022/01/25 07:32:09;;;;;;;18.55;11.65;;;;;;;0.63;85.87;97696.03;1698340;83;21467;-82
2022/01/25 07:34:35;;;;;;;26.25;13.70;;;;;;;0.69;86.06;97689.77;1717039;83;21038;-80
2022/01/25 07:37:00;;;;;;;26.65;14.78;;;;;;;0.78;86.07;97691.77;1717256;83;20931;-80
2022/01/25 07:39:26;;;;;;;38.63;17.98;;;;;;;0.87;86.12;97691.25;1716941;83;21393;-80
2022/01/25 07:41:59;;;;;;;43.08;18.62;;;;;;;0.92;85.83;97684.12;1716998;83;20931;-81
2022/01/25 07:44:28;;;;;;;;;;;;;;;0.97;85.87;97683.84;1719797;83;20979;-80
2022/01/25 07:46:53;;;;;;;38.33;18.57;;;;;;;0.98;85.74;97685.05;1716846;83;20117;-80
2022/01/25 07:49:18;;;;;;;62.10;35.05;;;;;;;1.03;85.89;97680.94;1717132;83;21006;-80
2022/01/25 07:51:44;;;;;;;29.85;17.20;;;;;;;1.08;85.67;97681.02;1717318;83;21326;-81
2022/01/25 07:54:10;;;;;;;23.02;15.43;;;;;;;1.10;85.36;97681.75;1703237;83;21139;-81
2022/01/25 07:56:36;;;;;;;20.90;12.07;;;;;;;1.12;85.19;97670.13;1697133;83;21040;-81
2022/01/25 07:59:02;;;;;;;20.48;11.83;;;;;;;1.13;85.12;97673.88;1697166;84;21391;-81
2022/01/25 08:01:28;;;;;;;15.35;11.53;;;;;;;1.15;84.99;97682.77;1696840;84;20976;-81
2022/01/25 08:03:54;;;;;;;14.43;10.25;;;;;;;1.13;84.93;97683.30;1696469;83;21048;-81
2022/01/25 08:06:21;;;;;;;25.20;14.05;;;;;;;1.10;84.92;97676.63;1696664;83;21046;-81
2022/01/25 08:08:46;;;;;;;15.63;10.78;;;;;;;1.16;85.08;97670.34;1696789;84;21051;-80
2022/01/25 08:11:12;;;;;;;15.35;11.15;;;;;;;1.25;85.03;97660.80;1697042;83;21051;-80
2022/01/25 08:13:44;;;;;;;16.05;10.70;;;;;;;1.29;84.80;97667.84;1696778;83;20983;-80
2022/01/25 08:16:06;;;;;;;18.60;11.90;;;;;;;1.31;84.74;97669.42;1696139;84;21429;-80
2022/01/25 08:18:32;;;;;;;25.48;14.55;;;;;;;1.33;84.85;97668.86;1697120;83;21008;-80
2022/01/25 08:20:57;;;;;;;28.27;15.78;;;;;;;1.39;85.07;97661.25;1697086;83;20987;-80
2022/01/25 08:23:23;;;;;;;21.65;12.98;;;;;;;1.42;85.12;97663.16;1696998;83;21406;-80
2022/01/25 08:25:49;;;;;;;26.55;17.82;;;;;;;1.43;85.08;97667.37;1675446;84;21032;-80
2022/01/25 08:28:15;;;;;;;22.90;15.40;;;;;;;1.54;85.19;97669.73;1697038;84;21007;-80
2022/01/25 08:30:41;;;;;;;21.68;15.50;;;;;;;1.61;84.95;97679.96;1696841;84;21358;-82
2022/01/25 08:33:06;;;;;;;22.70;16.00;;;;;;;1.67;84.98;97674.02;1696895;83;20976;-82
2022/01/25 08:35:32;;;;;;;23.80;16.52;;;;;;;1.73;84.77;97665.94;1696799;83;20964;-82
2022/01/25 08:37:58;;;;;;;22.73;14.18;;;;;;;1.73;84.63;97676.19;1697064;83;21335;-82
2022/01/25 08:40:23;;;;;;;20.60;12.85;;;;;;;1.72;84.62;97671.98;1696937;83;21036;-80
2022/01/25 08:42:50;;;;;;;26.82;15.85;;;;;;;1.72;84.44;97669.88;1696921;84;21039;-80
2022/01/25 08:45:16;;;;;;;21.23;14.68;;;;;;;1.72;84.26;97665.58;1675477;84;20968;-80
2022/01/25 08:47:42;;;;;;;27.73;16.23;;;;;;;1.74;84.31;97662.92;1696806;83;21009;-80
2022/01/25 08:50:09;;;;;;;40.78;28.98;;;;;;;1.82;84.40;97664.56;1675314;83;21423;-80
2022/01/25 08:52:36;;;;;;;31.48;20.62;;;;;;;1.89;84.34;97664.98;1666909;85;21044;-81
2022/01/25 08:55:02;;;;;;;26.80;18.48;;;;;;;1.89;84.13;97658.11;1642062;86;21422;-81
2022/01/25 08:57:28;;;;;;;27.98;17.55;;;;;;;1.87;84.16;97675.80;1661013;86;21379;-81
2022/01/25 08:59:54;;;;;;;26.68;18.35;;;;;;;1.87;84.15;97672.77;1660765;86;20992;-81
2022/01/25 09:02:19;;;;;;;27.45;16.90;;;;;;;1.92;83.95;97677.59;1661114;86;21002;-81
2022/01/25 09:04:45;;;;;;;20.17;13.85;;;;;;;1.91;83.56;97672.94;1642323;86;21063;-81
2022/01/25 09:07:12;;;;;;;22.45;16.82;;;;;;;1.85;83.25;97677.17;1661173;86;21040;-81
2022/01/25 09:09:39;;;;;;;21.45;14.40;;;;;;;1.79;83.35;97678.39;1661334;86;20968;-81
2022/01/25 09:12:06;;;;;;;22.27;16.30;;;;;;;1.77;83.49;97681.94;1661277;86;21040;-81
2022/01/25 09:14:32;;;;;;;20.85;14.28;;;;;;;1.74;83.50;97681.67;1660696;86;20992;-81
2022/01/25 09:16:59;;;;;;;16.93;11.65;;;;;;;1.72;83.58;97677.11;1642437;86;21011;-81
2022/01/25 09:19:24;;;;;;;23.25;14.80;;;;;;;1.70;83.58;97677.67;1661433;86;21020;-81
2022/01/25 09:21:50;;;;;;;19.77;13.20;;;;;;;1.73;83.96;97680.49;1661263;86;21429;-81
2022/01/25 09:24:16;;;;;;;22.40;15.78;;;;;;;1.82;83.78;97674.81;1660876;86;21040;-81
2022/01/25 09:26:42;;;;;;;31.95;20.15;;;;;;;1.85;83.42;97673.33;1661399;86;20971;-81
2022/01/25 09:29:07;;;;;;;28.32;20.80;;;;;;;1.86;83.43;97662.62;1661178;86;21016;-81
2022/01/25 09:31:33;;;;;;;28.98;20.25;;;;;;;1.93;83.53;97674.94;1660785;86;21359;-81
2022/01/25 09:33:59;;;;;;;32.53;22.42;;;;;;;1.91;83.43;97683.19;1661175;86;21064;-81
2022/01/25 09:36:25;;;;;;;27.40;17.32;;;;;;;1.92;83.52;97678.42;1661196;86;21083;-81
2022/01/25 09:38:53;;;;;;;28.65;17.98;;;;;;;1.90;83.48;97670.02;1661162;86;21518;-81
2022/01/25 09:41:18;;;;;;;24.65;17.30;;;;;;;1.94;83.70;97665.05;1661023;86;21407;-81
2022/01/25 09:43:44;;;;;;;24.45;16.27;;;;;;;2.02;83.74;97668.42;1660966;86;21056;-81
2022/01/25 09:46:10;;;;;;;21.35;16.42;;;;;;;2.07;83.67;97674.07;1641675;86;21059;-81
2022/01/25 09:48:36;;;;;;;28.35;18.23;;;;;;;2.05;83.42;97673.34;1673045;83;21005;-81
2022/01/25 09:51:02;;;;;;;25.15;17.23;;;;;;;2.09;83.58;97678.64;1677272;84;21041;-81
2022/01/25 09:53:29;;;;;;;35.90;25.52;;;;;;;2.05;83.48;97669.05;1660603;86;21067;-81
2022/01/25 09:55:56;;;;;;;30.15;23.80;;;;;;;2.04;83.52;97666.13;1642329;86;21063;-81
2022/01/25 09:58:21;;;;;;;25.25;18.23;;;;;;;2.03;83.34;97661.91;1660935;86;20976;-81
2022/01/25 10:00:48;;;;;;;25.75;17.80;;;;;;;2.09;83.54;97663.25;1641518;86;21013;-80
2022/01/25 10:03:25;;;;;;;26.50;18.37;;;;;;;2.14;83.44;97661.24;1660890;86;22282;-81
2022/01/25 10:05:50;;;;;;;22.10;15.00;;;;;;;2.16;83.41;97663.24;1655533;85;20988;-81
2022/01/25 10:08:25;;;;;;;20.02;15.32;;;;;;;2.19;83.46;97659.66;1688938;85;20999;-81
2022/01/25 10:11:04;;;;;;;26.12;17.57;;;;;;;2.18;83.51;97657.55;1688826;85;21016;-81
2022/01/25 10:13:37;;;;;;;29.23;17.87;;;;;;;2.15;83.45;97650.06;1688764;85;21004;-81
2022/01/25 10:16:08;;;;;;;24.10;15.63;;;;;;;2.11;83.23;97649.88;1688855;85;21047;-80
2022/01/25 10:18:51;;;;;;;25.20;16.67;;;;;;;2.12;83.28;97657.95;1688977;85;21008;-81
2022/01/25 10:21:24;;;;;;;31.90;20.25;;;;;;;2.17;83.35;97653.34;1688523;85;20968;-81
2022/01/25 10:24:05;;;;;;;32.30;19.27;;;;;;;2.20;83.34;97640.78;1688865;85;21613;-81
2022/01/25 10:26:35;;;;;;;33.70;22.02;;;;;;;2.12;83.19;97639.19;1688715;85;21381;-81
2022/01/25 10:29:03;;;;;;;37.28;24.80;;;;;;;2.12;83.60;97641.75;1688569;85;21031;-81
2022/01/25 10:31:42;;;;;;;31.33;21.97;;;;;;;2.10;83.62;97637.52;1688870;85;22110;-81
2022/01/25 10:34:10;;;;;;;30.80;20.82;;;;;;;2.12;83.67;97641.75;1688338;85;21135;-81
2022/01/25 10:36:46;;;;;;;29.27;19.77;;;;;;;2.16;83.68;97632.93;1688901;85;21055;-81
2022/01/25 10:39:30;;;;;;;31.48;21.33;;;;;;;2.21;83.76;97631.70;1688883;85;20981;-81
2022/01/25 10:42:27;;;;;;;31.42;19.23;;;;;;;2.27;83.68;97627.45;1689120;85;21144;-82
2022/01/25 10:45:04;;;;;;;29.25;18.95;;;;;;;2.34;83.59;97624.05;1688816;85;21034;-82
2022/01/25 10:47:46;;;;;;;24.05;16.82;;;;;;;2.32;83.43;97620.30;1687920;83;21438;-82
2022/01/25 10:50:31;;;;;;;24.55;17.45;;;;;;;2.26;83.82;97623.24;1682760;85;21044;-82
2022/01/25 10:53:16;;;;;;;17.73;14.00;;;;;;;2.26;83.82;97623.24;1655720;86;21064;-82
2022/01/25 10:55:49;;;;;;;20.92;15.45;;;;;;;2.25;83.67;97617.75;1654948;87;21000;-82
2022/01/25 10:58:15;;;;;;;;;;;;;;;2.29;83.78;97608.96;1652563;86;21058;-82
2022/01/25 11:00:45;;;;;;;28.95;16.97;;;;;;;2.36;83.76;97611.47;1610976;89;20102;-82
2022/01/25 11:03:11;;;;;;;22.95;15.70;;;;;;;2.38;83.61;97604.49;1669161;85;21027;-82
2022/01/25 11:05:41;;;;;;;22.55;14.43;;;;;;;2.38;83.56;97604.49;1648805;86;21461;-82
2022/01/25 11:08:13;;;;;;;26.05;17.07;;;;;;;2.36;83.57;97601.21;1669235;85;21028;-82
2022/01/25 11:10:53;;;;;;;41.98;28.17;;;;;;;2.36;83.64;97600.39;1669228;86;20972;-80
2022/01/25 11:13:33;;;;;;;47.90;30.80;;;;;;;2.32;83.72;97598.95;1667280;86;21072;-80
2022/01/25 11:15:40;;;;;;;30.97;20.15;;;;;;;2.31;83.66;97595.58;1614570;88;21007;-80
2022/01/25 11:18:06;;;;;;;29.10;17.40;;;;;;;2.33;83.67;97586.49;1659202;86;21435;-80
2022/01/25 11:20:34;;;;;;;33.98;21.97;;;;;;;2.35;83.62;97589.77;1675060;85;21004;-81
2022/01/25 11:22:59;;;;;;;25.70;15.83;;;;;;;2.35;83.74;97589.31;1683629;85;21498;-81
2022/01/25 11:25:25;;;;;;;32.13;21.60;;;;;;;2.34;83.56;97590.70;1662405;84;21052;-81
2022/01/25 11:27:51;;;;;;;28.60;18.70;;;;;;;2.34;83.84;97590.23;1678403;85;21040;-80
2022/01/25 11:30:19;;;;;;;28.77;18.67;;;;;;;2.35;83.89;97584.18;1697180;84;21035;-81
2022/01/25 11:32:48;;;;;;;53.20;38.25;;;;;;;2.39;83.80;97588.17;1696545;84;21030;-80
2022/01/25 11:35:19;;;;;;;32.95;23.55;;;;;;;2.43;83.72;97585.41;1696487;84;21131;-80
2022/01/25 11:37:48;;;;;;;25.23;16.27;;;;;;;2.46;83.68;97587.80;1676260;84;21014;-81
2022/01/25 11:40:29;;;;;;;21.40;16.25;;;;;;;2.48;83.55;97575.68;1696754;84;21394;-80
2022/01/25 11:42:58;;;;;;;26.57;19.42;;;;;;;2.46;83.58;97577.06;1696957;84;21011;-80
2022/01/25 11:45:27;;;;;;;52.20;43.10;;;;;;;2.47;83.81;97576.61;1696872;84;21030;-80
2022/01/25 11:47:53;;;;;;;61.50;52.55;;;;;;;2.46;83.80;97573.69;1696763;83;20960;-80
2022/01/25 11:50:19;;;;;;;27.05;20.30;;;;;;;2.46;83.84;97568.09;1684734;84;21023;-80
2022/01/25 11:52:54;;;;;;;25.08;17.52;;;;;;;2.47;83.76;97562.03;1668840;86;21429;-81
2022/01/25 11:55:30;;;;;;;24.80;17.37;;;;;;;2.47;83.58;97566.34;1668611;86;21374;-81
2022/01/25 11:58:10;;;;;;;29.72;23.92;;;;;;;2.46;83.30;97565.98;1668645;85;21103;-81
2022/01/25 12:00:47;;;;;;;29.42;20.05;;;;;;;2.38;83.17;97562.17;1668591;86;21058;-80
2022/01/25 12:03:46;;;;;;;31.52;22.30;;;;;;;2.30;83.44;97563.16;1668422;85;21063;-81
2022/01/25 12:06:27;;;;;;;28.17;20.10;;;;;;;2.29;83.68;97562.80;1674292;83;21028;-81
2022/01/25 12:11:47;;;;;;;25.40;16.48;;;;;;;2.16;83.54;97558.11;1696435;83;21438;-80
2022/01/25 12:14:32;;;;;;;26.35;18.00;;;;;;;2.10;83.54;97552.91;1697032;84;21091;-80
2022/01/25 12:17:07;;;;;;;29.48;20.25;;;;;;;2.05;83.58;97551.58;1697018;84;20972;-80
2022/01/25 12:19:51;;;;;;;29.52;19.40;;;;;;;1.98;83.82;97548.60;1697082;84;21039;-80
2022/01/25 12:22:38;;;;;;;35.63;21.65;;;;;;;1.91;84.00;97549.08;1697032;84;21374;-80
2022/01/25 12:25:26;;;;;;;27.98;20.50;;;;;;;1.85;84.15;97552.88;1696883;84;21019;-80
2022/01/25 12:28:03;;;;;;;31.45;21.33;;;;;;;1.80;84.29;97556.20;1696233;84;21038;-80
2022/01/25 12:30:40;;;;;;;30.10;21.02;;;;;;;1.82;84.49;97552.26;1696682;84;20988;-80
2022/01/25 12:33:09;;;;;;;30.90;20.77;;;;;;;1.86;84.64;97546.83;1696939;84;21043;-80
2022/01/25 12:35:54;;;;;;;28.98;22.02;;;;;;;1.91;84.54;97539.65;1696954;84;21422;-82
2022/01/25 12:38:47;;;;;;;29.60;19.75;;;;;;;1.92;84.62;97545.59;1697003;84;21035;-82
2022/01/25 12:41:18;;;;;;;30.52;19.65;;;;;;;1.89;84.51;97541.95;1675353;85;21123;-82
2022/01/25 12:43:51;;;;;;;29.07;20.52;;;;;;;1.83;84.62;97548.31;1675191;84;21122;-82
2022/01/25 12:46:27;;;;;;;33.98;20.75;;;;;;;1.80;84.67;97539.55;1696985;84;21063;-82
2022/01/25 12:48:56;;;;;;;33.33;22.35;;;;;;;1.75;84.63;97542.38;1697186;83;20949;-82
2022/01/25 12:51:28;;;;;;;33.38;23.20;;;;;;;1.71;84.62;97546.53;1675527;84;21004;-82
2022/01/25 12:53:55;;;;;;;26.07;19.30;;;;;;;1.71;84.81;97548.63;1700843;83;21039;-81
2022/01/25 12:56:29;;;;;;;34.23;24.47;;;;;;;1.76;84.98;97547.86;1712286;83;20998;-82
2022/01/25 12:58:59;;;;;;;35.50;23.92;;;;;;;1.81;85.02;97546.31;1716940;83;20935;-81
2022/01/25 13:01:26;;;;;;;35.95;24.67;;;;;;;1.79;84.90;97545.59;1716663;83;20955;-80
2022/01/25 13:04:01;;;;;;;36.15;24.10;;;;;;;1.76;84.95;97544.02;1716764;83;20990;-80
2022/01/25 13:06:31;;;;;;;36.28;26.00;;;;;;;1.72;85.10;97545.61;1690542;83;21385;-81
2022/01/25 13:09:15;;;;;;;37.10;25.43;;;;;;;1.66;85.13;97548.58;1716375;84;21441;-81
2022/01/25 13:17:17;;;;;;;44.18;27.30;;;;;;;1.46;85.49;97544.69;1717289;83;20986;-81